Time;durP1;ratioP1;P1;durP2;ratioP2;P2;SDS_P1;SDS_P2;PMS_P1;PMS_P2;Temp;Humidity;BMP_temperature;BMP_pressure;BME280_temperature;BME280_humidity;BME280_pressure;Samples;Min_cycle;Max_cycle;Signal;HPM_P1;HPM_P2
2023/01/19 00:00:16;;;;;;;3.00;2.03;;;2.20;99.90;;;;;;5047913;28;20512;-60
2023/01/19 00:02:44;;;;;;;2.33;2.13;;;2.10;99.90;;;;;;5048144;28;20049;-61
2023/01/19 00:05:10;;;;;;;3.72;1.95;;;2.40;99.90;;;;;;5049004;28;20729;-60
2023/01/19 00:07:36;;;;;;;3.22;1.70;;;1.90;99.90;;;;;;5046472;28;20091;-60
2023/01/19 00:10:02;;;;;;;3.38;1.77;;;1.90;99.90;;;;;;5048651;28;20045;-60
2023/01/19 00:12:28;;;;;;;2.65;1.83;;;1.80;99.90;;;;;;5045656;28;20101;-60
2023/01/19 00:14:53;;;;;;;2.50;1.73;;;1.80;99.90;;;;;;5047809;28;20071;-61
2023/01/19 00:17:19;;;;;;;2.42;1.70;;;1.70;99.90;;;;;;5048079;28;20048;-60
2023/01/19 00:19:45;;;;;;;2.40;1.55;;;1.70;99.90;;;;;;5048053;28;20839;-61
2023/01/19 00:22:10;;;;;;;4.18;1.50;;;1.70;99.90;;;;;;5047922;28;20063;-61
2023/01/19 00:24:36;;;;;;;2.05;1.40;;;1.70;99.90;;;;;;5048000;28;20045;-61
2023/01/19 00:27:02;;;;;;;1.70;1.33;;;1.70;99.90;;;;;;5046487;28;20112;-60
2023/01/19 00:29:33;;;;;;;2.22;1.50;;;1.70;99.90;;;;;;5029263;28;20059;-60
2023/01/19 00:32:03;;;;;;;2.70;1.40;;;1.70;99.90;;;;;;5049413;28;20041;-60
2023/01/19 00:34:35;;;;;;;2.05;1.50;;;1.70;99.90;;;;;;5047473;28;20097;-60
2023/01/19 00:37:10;;;;;;;3.40;1.77;;;1.70;99.90;;;;;;5045635;28;20076;-61
2023/01/19 00:39:36;;;;;;;3.72;1.70;;;1.70;99.90;;;;;;5049385;28;20475;-60
2023/01/19 00:44:47;;;;;;;3.92;2.17;;;1.70;99.90;;;;;;5049475;28;20045;-61
2023/01/19 00:47:12;;;;;;;3.08;2.50;;;1.90;99.90;;;;;;5028760;28;20066;-61
2023/01/19 00:49:38;;;;;;;3.38;2.80;;;1.70;99.90;;;;;;5050043;28;20068;-61
2023/01/19 00:52:04;;;;;;;3.55;2.85;;;1.70;99.90;;;;;;5046927;28;20041;-61
2023/01/19 00:54:30;;;;;;;3.35;2.80;;;1.70;99.90;;;;;;5046798;28;20041;-60
2023/01/19 00:56:56;;;;;;;4.30;3.58;;;1.70;99.90;;;;;;5053092;28;20464;-61
2023/01/19 00:59:22;;;;;;;4.57;3.38;;;1.70;99.90;;;;;;5051759;28;20041;-61
2023/01/19 01:01:47;;;;;;;3.70;3.03;;;1.70;99.90;;;;;;5053151;28;20045;-61
2023/01/19 01:04:13;;;;;;;5.10;3.70;;;1.70;99.90;;;;;;5049853;28;20049;-61
2023/01/19 01:06:39;;;;;;;2.63;2.33;;;1.60;99.90;;;;;;5052475;28;20045;-61
2023/01/19 01:09:10;;;;;;;5.28;4.28;;;1.70;99.90;;;;;;5048930;28;20033;-61
2023/01/19 01:11:40;;;;;;;5.95;5.03;;;1.70;99.90;;;;;;5051487;28;20103;-61
2023/01/19 01:14:07;;;;;;;7.85;5.18;;;1.70;99.90;;;;;;5050878;28;20132;-61
2023/01/19 01:16:33;;;;;;;7.65;5.57;;;1.70;99.90;;;;;;5051078;28;20076;-61
2023/01/19 01:18:59;;;;;;;7.40;4.93;;;1.70;99.90;;;;;;5051568;28;20527;-61
2023/01/19 01:21:24;;;;;;;8.73;5.30;;;1.70;99.90;;;;;;5048076;28;20052;-61
2023/01/19 01:23:50;;;;;;;8.70;5.78;;;1.70;99.90;;;;;;5051893;28;20075;-61
2023/01/19 01:26:16;;;;;;;7.25;5.95;;;1.80;99.90;;;;;;5032210;28;20045;-61
2023/01/19 01:28:41;;;;;;;11.77;6.75;;;1.90;99.90;;;;;;5049034;28;20055;-60
2023/01/19 01:31:07;;;;;;;12.90;7.10;;;1.80;99.90;;;;;;5052022;28;20790;-60
2023/01/19 01:33:33;;;;;;;10.07;7.78;;;1.70;99.90;;;;;;5050464;28;20084;-60
2023/01/19 01:35:58;;;;;;;12.23;8.00;;;1.80;99.90;;;;;;5050571;28;20069;-60
2023/01/19 01:38:24;;;;;;;12.93;8.27;;;2.10;99.90;;;;;;5049735;28;20060;-60
2023/01/19 01:40:50;;;;;;;12.18;8.50;;;1.90;99.90;;;;;;5052805;28;20048;-60
2023/01/19 01:43:17;;;;;;;18.60;9.23;;;1.90;99.90;;;;;;5049635;28;20071;-60
2023/01/19 01:45:43;;;;;;;11.57;8.82;;;1.90;99.90;;;;;;5052090;28;20080;-61
2023/01/19 01:48:18;;;;;;;12.50;9.32;;;1.90;99.90;;;;;;5051061;28;20048;-61
2023/01/19 01:53:36;;;;;;;14.15;9.32;;;1.90;99.90;;;;;;5049826;28;20049;-61
2023/01/19 01:56:07;;;;;;;12.13;8.05;;;1.90;99.90;;;;;;5048665;28;20076;-60
2023/01/19 01:58:34;;;;;;;11.68;8.80;;;2.00;99.90;;;;;;5051610;28;20041;-60
2023/01/19 02:03:44;;;;;;;14.43;8.45;;;2.00;99.90;;;;;;5050866;28;20056;-61
2023/01/19 02:06:12;;;;;;;11.43;8.48;;;2.00;99.90;;;;;;5051832;28;20037;-60
2023/01/19 02:14:24;;;;;;;10.52;7.45;;;2.00;99.90;;;;;;5049378;28;20049;-61
2023/01/19 02:16:50;;;;;;;11.07;8.27;;;2.00;99.90;;;;;;5047675;28;20033;-61
2023/01/19 02:19:23;;;;;;;11.20;7.70;;;2.10;99.90;;;;;;5047072;28;20047;-62
2023/01/19 02:21:49;;;;;;;10.43;7.47;;;2.10;99.90;;;;;;5049877;28;20045;-62
2023/01/19 02:24:16;;;;;;;13.38;7.03;;;2.10;99.90;;;;;;5048447;28;20067;-62
2023/01/19 02:26:45;;;;;;;12.38;6.70;;;2.10;99.90;;;;;;5050065;28;20565;-61
2023/01/19 02:29:15;;;;;;;11.93;6.07;;;2.10;99.90;;;;;;5048207;28;20480;-62
2023/01/19 02:31:41;;;;;;;8.55;5.32;;;2.10;99.90;;;;;;5047748;28;20037;-62
2023/01/19 02:34:14;;;;;;;8.40;5.45;;;2.10;99.90;;;;;;5045992;28;20045;-61
2023/01/19 02:36:48;;;;;;;7.25;4.70;;;2.10;99.90;;;;;;5048468;28;20049;-60
2023/01/19 02:39:18;;;;;;;7.68;5.30;;;2.20;99.90;;;;;;5048181;28;20045;-60
2023/01/19 02:41:49;;;;;;;11.85;5.90;;;2.20;99.90;;;;;;5048790;28;20049;-60
2023/01/19 02:44:17;;;;;;;7.32;5.55;;;2.40;99.90;;;;;;5051352;28;20068;-60
2023/01/19 02:46:43;;;;;;;7.57;4.93;;;2.20;99.90;;;;;;5047877;28;20531;-60
2023/01/19 02:49:08;;;;;;;5.10;4.00;;;2.10;99.90;;;;;;5051663;28;20100;-60
2023/01/19 02:51:34;;;;;;;7.57;5.57;;;2.10;99.90;;;;;;5049331;28;20052;-60
2023/01/19 02:54:31;;;;;;;6.95;5.65;;;2.00;99.90;;;;;;5049754;28;20565;-60
2023/01/19 02:57:08;;;;;;;6.13;5.22;;;2.00;99.90;;;;;;5051072;28;20052;-60
2023/01/19 02:59:55;;;;;;;6.97;5.80;;;1.90;99.90;;;;;;5049566;28;20107;-60
2023/01/19 03:02:38;;;;;;;5.43;4.40;;;1.80;99.90;;;;;;5049943;28;20057;-60
2023/01/19 03:05:10;;;;;;;5.68;4.72;;;1.70;99.90;;;;;;5050306;28;20059;-60
2023/01/19 03:07:51;;;;;;;6.55;4.50;;;1.70;99.90;;;;;;5049214;28;20049;-60
2023/01/19 03:10:42;;;;;;;4.65;3.97;;;1.60;99.90;;;;;;5051144;28;20080;-60
2023/01/19 03:13:15;;;;;;;5.68;4.65;;;1.80;99.90;;;;;;5046508;28;20157;-60
2023/01/19 03:16:00;;;;;;;8.45;4.45;;;1.60;99.90;;;;;;5046811;28;20048;-60
2023/01/19 03:18:31;;;;;;;5.80;4.20;;;1.60;99.90;;;;;;5048009;28;20116;-60
2023/01/19 03:20:59;;;;;;;6.65;4.45;;;1.60;99.90;;;;;;5047195;28;20075;-60
2023/01/19 03:23:29;;;;;;;5.82;4.47;;;1.60;99.90;;;;;;5049255;28;20056;-61
2023/01/19 03:25:57;;;;;;;6.05;4.38;;;1.60;99.90;;;;;;5047194;28;20048;-60
2023/01/19 03:28:26;;;;;;;5.93;3.78;;;1.60;99.90;;;;;;5047489;28;20121;-60
2023/01/19 03:30:57;;;;;;;5.40;3.65;;;1.70;99.90;;;;;;5045271;28;20037;-59
2023/01/19 03:33:32;;;;;;;5.38;3.92;;;1.60;99.90;;;;;;5048424;28;20048;-60
2023/01/19 03:36:12;;;;;;;5.80;3.90;;;1.70;99.90;;;;;;5050416;28;20052;-60
2023/01/19 03:38:41;;;;;;;6.88;3.90;;;1.70;99.90;;;;;;5046873;28;20377;-60
2023/01/19 03:41:12;;;;;;;5.10;3.63;;;1.70;99.90;;;;;;5049443;28;20053;-61
2023/01/19 03:43:38;;;;;;;6.40;4.30;;;1.70;99.90;;;;;;5046523;28;20071;-61
2023/01/19 03:46:06;;;;;;;6.82;4.20;;;1.70;99.90;;;;;;5047727;28;20558;-61
2023/01/19 03:48:32;;;;;;;7.55;4.85;;;1.70;99.90;;;;;;5049001;28;20052;-61
2023/01/19 03:51:06;;;;;;;8.13;4.80;;;1.80;99.90;;;;;;5046934;28;20041;-61
2023/01/19 03:53:32;;;;;;;6.93;4.88;;;1.80;99.90;;;;;;5048725;28;20056;-61
2023/01/19 03:55:58;;;;;;;6.85;3.95;;;1.90;99.90;;;;;;5048768;28;20343;-61
2023/01/19 03:58:23;;;;;;;9.27;4.25;;;2.10;99.90;;;;;;5049054;28;20090;-59
2023/01/19 04:00:49;;;;;;;6.55;4.40;;;1.90;99.90;;;;;;5044538;28;20041;-59
2023/01/19 04:03:17;;;;;;;5.90;4.20;;;2.00;99.90;;;;;;5042550;28;20044;-59
2023/01/19 04:05:43;;;;;;;6.68;4.15;;;2.00;99.90;;;;;;5045988;28;20045;-60
2023/01/19 04:08:09;;;;;;;6.97;4.40;;;2.00;99.90;;;;;;5047462;28;20056;-59
2023/01/19 04:10:35;;;;;;;9.23;3.75;;;2.00;99.90;;;;;;5049303;28;20041;-59
2023/01/19 04:13:02;;;;;;;7.78;3.85;;;2.00;99.90;;;;;;5047905;28;20056;-59
2023/01/19 04:15:29;;;;;;;10.73;3.50;;;2.00;99.90;;;;;;5049655;28;20135;-60
2023/01/19 04:17:57;;;;;;;8.63;3.00;;;2.10;99.90;;;;;;5048131;28;20513;-60
2023/01/19 04:20:23;;;;;;;9.07;2.95;;;2.10;99.90;;;;;;5046946;28;20059;-60
2023/01/19 04:22:48;;;;;;;15.77;3.15;;;2.20;99.90;;;;;;5048457;28;20060;-59
2023/01/19 04:25:15;;;;;;;17.02;2.35;;;2.20;99.90;;;;;;5046678;28;20053;-60
2023/01/19 04:27:41;;;;;;;15.18;2.40;;;2.30;99.90;;;;;;5050032;28;20047;-60
2023/01/19 04:30:08;;;;;;;13.52;2.35;;;2.30;99.90;;;;;;5049151;28;20399;-60
2023/01/19 04:32:34;;;;;;;8.00;2.25;;;2.40;99.90;;;;;;5049150;28;20242;-60
2023/01/19 04:35:00;;;;;;;13.50;2.30;;;2.50;99.90;;;;;;5048442;28;20051;-60
2023/01/19 04:37:26;;;;;;;12.90;1.83;;;2.60;99.90;;;;;;5050378;28;20076;-59
2023/01/19 04:39:51;;;;;;;12.88;1.73;;;2.70;99.90;;;;;;5051896;28;20041;-60
2023/01/19 04:42:17;;;;;;;13.77;1.80;;;2.70;99.90;;;;;;5050163;28;20114;-60
2023/01/19 04:44:43;;;;;;;20.83;2.40;;;2.80;99.90;;;;;;5049818;28;20071;-60
2023/01/19 04:47:08;;;;;;;21.55;2.50;;;2.90;99.90;;;;;;5050075;28;20056;-60
2023/01/19 04:49:37;;;;;;;22.67;4.82;;;3.00;99.90;;;;;;5049846;28;20068;-61
2023/01/19 04:52:04;;;;;;;17.63;2.22;;;3.10;99.90;;;;;;5049359;28;20051;-60
2023/01/19 04:54:29;;;;;;;18.58;2.28;;;3.20;99.90;;;;;;5052165;28;20045;-60
2023/01/19 04:56:55;;;;;;;28.63;2.92;;;3.30;99.90;;;;;;5053110;28;20294;-59
2023/01/19 04:59:21;;;;;;;19.65;2.53;;;3.60;99.90;;;;;;5051860;28;20059;-60
2023/01/19 05:01:46;;;;;;;9.77;2.22;;;3.60;99.90;;;;;;5052543;28;20052;-62
2023/01/19 05:04:12;;;;;;;17.42;1.85;;;3.50;99.90;;;;;;5051872;28;20517;-62
2023/01/19 05:06:38;;;;;;;12.88;2.05;;;3.60;99.90;;;;;;5052535;28;20055;-59
2023/01/19 05:09:06;;;;;;;17.63;2.13;;;3.60;99.90;;;;;;5049483;28;20142;-61
2023/01/19 05:11:32;;;;;;;14.15;2.00;;;3.80;99.90;;;;;;5052288;28;20033;-61
2023/01/19 05:13:58;;;;;;;10.70;1.70;;;3.50;99.90;;;;;;5053211;28;20071;-61
2023/01/19 05:16:23;;;;;;;8.07;1.00;;;4.50;99.90;;;;;;5050940;28;20646;-61
2023/01/19 05:18:49;;;;;;;13.45;1.58;;;3.50;99.90;;;;;;5035165;28;20132;-61
2023/01/19 05:21:15;;;;;;;7.88;1.13;;;3.50;99.90;;;;;;5048250;28;20048;-61
2023/01/19 05:23:41;;;;;;;6.15;1.23;;;3.50;99.90;;;;;;5052277;28;20037;-61
2023/01/19 05:26:06;;;;;;;8.35;1.35;;;3.50;99.90;;;;;;5047999;28;20385;-61
2023/01/19 05:28:32;;;;;;;16.88;1.63;;;3.50;99.90;;;;;;5051802;28;20038;-61
2023/01/19 05:30:58;;;;;;;7.15;1.05;;;3.50;99.90;;;;;;5051862;28;20041;-61
2023/01/19 05:33:24;;;;;;;6.50;1.25;;;3.50;99.90;;;;;;5050371;28;20044;-60
2023/01/19 05:35:54;;;;;;;12.70;1.60;;;4.70;99.90;;;;;;5050481;28;20075;-61
2023/01/19 05:38:20;;;;;;;9.23;1.88;;;3.50;99.90;;;;;;5050430;28;20057;-61
2023/01/19 05:40:46;;;;;;;9.52;1.42;;;3.50;99.90;;;;;;5048986;28;20045;-61
2023/01/19 05:43:12;;;;;;;11.30;1.10;;;3.50;99.90;;;;;;5049910;28;20127;-61
2023/01/19 05:45:38;;;;;;;12.75;1.88;;;3.50;99.90;;;;;;5051123;28;20053;-61
2023/01/19 05:48:05;;;;;;;14.88;1.50;;;3.50;99.90;;;;;;5046775;28;20055;-61
2023/01/19 05:50:31;;;;;;;14.35;1.70;;;3.50;99.90;;;;;;5046127;28;20108;-61
2023/01/19 05:52:57;;;;;;;10.50;1.85;;;3.50;99.90;;;;;;5048725;28;20049;-61
2023/01/19 05:55:23;;;;;;;7.45;1.27;;;3.50;99.90;;;;;;5049180;28;20045;-61
2023/01/19 05:57:49;;;;;;;16.25;1.77;;;3.50;99.90;;;;;;5050021;28;20045;-61
2023/01/19 06:00:15;;;;;;;11.45;1.80;;;3.40;99.90;;;;;;5049080;28;20048;-61
2023/01/19 06:02:40;;;;;;;12.68;1.98;;;3.40;99.90;;;;;;5051428;28;20056;-61
2023/01/19 06:05:07;;;;;;;16.63;1.88;;;3.60;99.90;;;;;;5050760;28;20037;-61
2023/01/19 06:07:32;;;;;;;16.75;1.95;;;3.30;99.90;;;;;;5049750;28;20312;-61
2023/01/19 06:09:58;;;;;;;14.50;2.25;;;3.30;99.90;;;;;;5051846;28;20263;-61
2023/01/19 06:12:23;;;;;;;13.18;2.72;;;3.30;99.90;;;;;;5049251;28;20045;-61
2023/01/19 06:14:49;;;;;;;17.08;2.67;;;3.20;99.90;;;;;;5050167;28;20493;-60
2023/01/19 06:17:15;;;;;;;12.85;1.85;;;3.20;99.90;;;;;;5050266;28;20048;-60
2023/01/19 06:19:41;;;;;;;15.98;2.15;;;3.20;99.90;;;;;;5052193;28;20496;-61
2023/01/19 06:22:07;;;;;;;16.75;2.45;;;3.20;99.90;;;;;;5048872;28;20052;-60
2023/01/19 06:24:33;;;;;;;19.20;2.20;;;3.50;99.90;;;;;;5050663;28;20126;-62
2023/01/19 06:27:01;;;;;;;15.48;1.80;;;3.30;99.90;;;;;;5032973;28;20053;-61
2023/01/19 06:29:27;;;;;;;15.23;1.85;;;3.30;99.90;;;;;;5031186;28;20056;-61
2023/01/19 06:31:53;;;;;;;12.45;1.67;;;3.40;99.90;;;;;;5050593;28;20481;-62
2023/01/19 06:34:19;;;;;;;8.20;1.45;;;3.40;99.90;;;;;;5046916;28;20072;-61
2023/01/19 06:36:45;;;;;;;10.48;1.70;;;3.50;99.90;;;;;;5049234;28;20057;-61
2023/01/19 06:39:12;;;;;;;13.65;1.90;;;3.50;99.90;;;;;;5049553;28;20037;-61
2023/01/19 06:41:38;;;;;;;10.38;1.80;;;3.50;99.90;;;;;;5049464;28;20068;-61
2023/01/19 06:44:04;;;;;;;12.15;2.00;;;3.50;99.90;;;;;;5049965;28;20068;-62
2023/01/19 06:46:31;;;;;;;9.02;1.65;;;3.50;99.90;;;;;;5049206;28;20041;-62
2023/01/19 06:48:56;;;;;;;9.38;1.83;;;3.50;99.90;;;;;;5047200;28;20056;-61
2023/01/19 06:51:22;;;;;;;9.63;1.27;;;3.50;99.90;;;;;;5040250;28;20052;-61
2023/01/19 06:53:49;;;;;;;9.82;1.58;;;3.50;99.90;;;;;;5044818;28;20060;-61
2023/01/19 06:56:14;;;;;;;10.90;1.38;;;3.50;99.90;;;;;;5046471;28;20037;-61
2023/01/19 06:58:41;;;;;;;10.95;1.50;;;3.50;99.90;;;;;;5047078;28;20160;-61
2023/01/19 07:01:07;;;;;;;8.00;1.42;;;3.50;99.90;;;;;;5049859;28;20452;-61
2023/01/19 07:03:35;;;;;;;15.00;2.08;;;3.50;99.90;;;;;;5048225;28;20382;-62
2023/01/19 07:06:01;;;;;;;14.13;2.28;;;3.10;99.90;;;;;;5047344;28;20057;-61
2023/01/19 07:08:28;;;;;;;10.52;1.80;;;3.50;99.90;;;;;;5048007;28;20072;-61
2023/01/19 07:11:06;;;;;;;14.35;1.95;;;3.50;99.90;;;;;;5050076;28;20033;-62
2023/01/19 07:13:33;;;;;;;11.00;1.67;;;3.40;99.90;;;;;;5046625;28;20049;-61
2023/01/19 07:16:04;;;;;;;9.43;1.60;;;3.50;99.90;;;;;;5048910;28;20060;-62
2023/01/19 07:18:30;;;;;;;15.52;2.70;;;3.50;99.90;;;;;;5046024;28;20353;-62
2023/01/19 07:20:57;;;;;;;10.20;1.70;;;3.40;99.90;;;;;;5045810;28;20104;-61
2023/01/19 07:23:23;;;;;;;10.15;1.75;;;3.40;99.90;;;;;;5048053;28;20505;-61
2023/01/19 07:25:49;;;;;;;7.85;1.80;;;3.40;99.90;;;;;;5046131;28;20087;-60
2023/01/19 07:28:15;;;;;;;18.00;2.50;;;3.40;99.90;;;;;;5048542;28;20117;-62
2023/01/19 07:30:42;;;;;;;14.35;2.03;;;3.60;99.90;;;;;;5048134;28;20528;-61
2023/01/19 07:33:08;;;;;;;16.33;2.83;;;3.40;99.90;;;;;;5048195;28;20130;-62
2023/01/19 07:35:34;;;;;;;17.45;2.97;;;3.40;99.90;;;;;;5047298;28;20044;-61
2023/01/19 07:37:59;;;;;;;16.08;1.92;;;3.40;99.90;;;;;;5045470;28;20037;-61
2023/01/19 07:40:26;;;;;;;17.67;3.00;;;3.50;99.90;;;;;;5046488;28;20048;-61
2023/01/19 07:42:52;;;;;;;17.13;2.53;;;3.50;99.90;;;;;;5044922;28;20049;-61
2023/01/19 07:45:22;;;;;;;13.82;2.80;;;3.50;99.90;;;;;;5045374;28;20079;-61
2023/01/19 07:47:48;;;;;;;25.17;2.78;;;3.50;99.90;;;;;;5048480;28;20040;-61
2023/01/19 07:50:16;;;;;;;14.15;2.25;;;3.50;99.90;;;;;;5043116;28;20048;-62
2023/01/19 07:52:43;;;;;;;14.70;2.28;;;3.50;99.90;;;;;;5047799;28;20070;-61
2023/01/19 07:55:09;;;;;;;13.60;2.17;;;3.60;99.90;;;;;;5043681;28;20048;-61
2023/01/19 07:57:35;;;;;;;15.85;2.38;;;3.50;99.90;;;;;;5048370;28;20088;-61
2023/01/19 08:00:03;;;;;;;12.75;2.15;;;3.50;99.90;;;;;;5048337;28;20072;-61
2023/01/19 08:02:30;;;;;;;12.20;2.30;;;3.40;99.90;;;;;;5048500;28;20093;-61
2023/01/19 08:04:56;;;;;;;10.18;2.10;;;3.50;99.90;;;;;;5048228;28;20047;-61
2023/01/19 08:07:22;;;;;;;13.40;2.40;;;3.50;99.90;;;;;;5045582;28;20076;-62
2023/01/19 08:09:47;;;;;;;19.55;2.60;;;3.40;99.90;;;;;;5046611;28;20048;-61
2023/01/19 08:12:13;;;;;;;17.20;2.83;;;3.40;99.90;;;;;;5048006;28;20594;-62
2023/01/19 08:14:39;;;;;;;15.13;2.40;;;3.30;99.90;;;;;;5048621;28;20049;-62
2023/01/19 08:17:04;;;;;;;14.10;1.88;;;3.40;99.90;;;;;;5046933;28;20071;-62
2023/01/19 08:19:30;;;;;;;16.45;2.20;;;3.40;99.90;;;;;;5049665;28;20049;-63
2023/01/19 08:21:57;;;;;;;16.25;2.45;;;3.40;99.90;;;;;;5045595;28;20069;-62
2023/01/19 08:24:27;;;;;;;17.33;3.25;;;3.40;99.90;;;;;;5045682;28;20076;-65
2023/01/19 08:27:01;;;;;;;9.82;2.00;;;3.40;99.90;;;;;;5038999;28;20135;-62
2023/01/19 08:29:29;;;;;;;17.20;2.55;;;3.50;99.90;;;;;;5046179;28;20041;-62
2023/01/19 08:31:57;;;;;;;17.17;2.45;;;3.30;99.90;;;;;;5048537;28;20077;-62
2023/01/19 08:34:23;;;;;;;16.02;3.05;;;3.30;99.90;;;;;;5047620;28;20536;-62
2023/01/19 08:36:49;;;;;;;13.73;2.53;;;3.30;99.90;;;;;;5048083;28;20051;-60
2023/01/19 08:39:16;;;;;;;10.15;2.75;;;3.40;99.90;;;;;;5047139;28;20135;-62
2023/01/19 08:41:42;;;;;;;10.70;2.00;;;3.40;99.90;;;;;;5046416;28;20049;-62
2023/01/19 08:44:08;;;;;;;17.00;2.25;;;3.30;99.90;;;;;;5049953;28;20128;-63
2023/01/19 08:46:34;;;;;;;12.75;2.83;;;3.30;99.90;;;;;;5048238;28;20099;-61
2023/01/19 08:49:00;;;;;;;18.17;2.67;;;3.40;99.90;;;;;;5045842;28;20061;-62
2023/01/19 08:51:25;;;;;;;19.38;2.35;;;3.50;99.90;;;;;;5048211;28;20547;-61
2023/01/19 08:53:51;;;;;;;14.23;2.30;;;3.40;99.90;;;;;;5049738;28;20052;-62
2023/01/19 08:56:17;;;;;;;14.00;2.85;;;3.40;99.90;;;;;;5043495;28;20116;-62
2023/01/19 08:58:44;;;;;;;19.15;3.45;;;3.50;99.90;;;;;;5039867;28;20041;-64
2023/01/19 09:01:13;;;;;;;16.98;2.95;;;3.50;99.90;;;;;;5046027;28;20045;-61
2023/01/19 09:03:39;;;;;;;13.10;2.22;;;3.50;99.90;;;;;;5040359;28;20060;-62
2023/01/19 09:06:09;;;;;;;12.38;2.50;;;3.50;99.90;;;;;;5047136;28;20081;-64
2023/01/19 09:08:34;;;;;;;8.35;2.28;;;3.50;99.90;;;;;;5042830;28;20052;-61
2023/01/19 09:11:00;;;;;;;16.63;2.45;;;3.50;99.90;;;;;;5047500;28;20068;-63
2023/01/19 09:13:26;;;;;;;13.00;2.90;;;3.60;99.90;;;;;;5047105;28;20048;-61
2023/01/19 09:15:52;;;;;;;15.63;3.15;;;3.60;99.90;;;;;;5042990;28;20033;-62
2023/01/19 09:18:20;;;;;;;14.98;2.35;;;3.70;99.90;;;;;;5049790;28;20091;-62
2023/01/19 09:20:48;;;;;;;14.90;2.50;;;3.80;99.90;;;;;;5029572;28;20051;-62
2023/01/19 09:23:16;;;;;;;9.00;3.17;;;3.90;99.90;;;;;;5047596;28;20516;-62
2023/01/19 09:25:44;;;;;;;12.60;1.88;;;4.10;99.90;;;;;;5048398;28;20041;-61
2023/01/19 09:28:13;;;;;;;10.85;2.00;;;4.40;99.90;;;;;;5052716;28;20097;-61
2023/01/19 09:30:41;;;;;;;7.93;1.63;;;4.50;99.90;;;;;;5050135;28;20633;-62
2023/01/19 09:33:12;;;;;;;11.98;2.03;;;4.50;99.90;;;;;;5050943;28;20040;-60
2023/01/19 09:35:40;;;;;;;15.43;2.13;;;4.60;99.90;;;;;;5048389;28;20068;-62
2023/01/19 09:38:07;;;;;;;11.25;2.22;;;4.90;99.90;;;;;;5046803;28;20052;-61
2023/01/19 09:40:35;;;;;;;13.07;2.72;;;5.30;99.90;;;;;;5051639;28;20088;-62
2023/01/19 09:43:18;;;;;;;16.58;3.67;;;5.50;99.90;;;;;;5048005;28;20132;-60
2023/01/19 09:45:56;;;;;;;12.98;2.85;;;5.70;99.90;;;;;;5043327;28;20064;-61
2023/01/19 09:48:40;;;;;;;14.57;2.70;;;5.80;99.90;;;;;;5046727;28;20048;-60
2023/01/19 09:51:11;;;;;;;14.90;2.92;;;6.60;99.90;;;;;;5044140;28;20141;-62
2023/01/19 09:53:58;;;;;;;15.70;3.20;;;5.90;99.90;;;;;;5051108;28;20310;-61
2023/01/19 09:56:27;;;;;;;11.25;2.47;;;6.30;99.90;;;;;;5048465;28;20099;-61
2023/01/19 09:58:53;;;;;;;11.23;2.22;;;6.50;99.90;;;;;;5049943;28;20037;-63
2023/01/19 10:01:47;;;;;;;12.85;2.78;;;6.60;99.90;;;;;;5043251;28;20104;-60
2023/01/19 10:04:39;;;;;;;14.82;3.28;;;6.80;99.90;;;;;;5049792;28;20045;-60
2023/01/19 10:07:08;;;;;;;15.57;2.25;;;7.10;99.90;;;;;;5051299;28;20087;-60
2023/01/19 10:09:57;;;;;;;11.15;2.75;;;7.60;99.90;;;;;;5049772;28;20045;-60
2023/01/19 10:13:07;;;;;;;10.15;2.10;;;8.00;99.90;;;;;;5049470;28;20045;-60
2023/01/19 10:15:58;;;;;;;8.73;1.92;;;8.30;99.90;;;;;;5047503;28;20044;-60
2023/01/19 10:18:29;;;;;;;11.80;2.58;;;9.00;99.90;;;;;;5048384;28;20108;-61
2023/01/19 10:20:59;;;;;;;11.80;2.40;;;9.50;99.90;;;;;;5046229;28;20785;-60
2023/01/19 10:23:37;;;;;;;10.05;2.10;;;10.10;99.90;;;;;;5049013;28;20053;-62
2023/01/19 10:26:35;;;;;;;11.02;3.22;;;10.40;99.90;;;;;;5046955;28;20049;-61
2023/01/19 10:29:05;;;;;;;11.80;2.92;;;10.50;99.90;;;;;;5045118;28;20076;-61
2023/01/19 10:31:32;;;;;;;14.43;2.88;;;10.60;99.90;;;;;;5049530;28;20045;-59
2023/01/19 10:33:58;;;;;;;13.57;3.80;;;10.90;99.90;;;;;;5046391;28;20048;-61
2023/01/19 10:36:36;;;;;;;12.90;3.53;;;11.10;99.90;;;;;;5048581;28;20037;-61
2023/01/19 10:39:06;;;;;;;13.90;3.65;;;10.90;99.90;;;;;;5044731;28;20080;-61
2023/01/19 10:41:39;;;;;;;13.88;4.07;;;10.70;99.90;;;;;;5045206;28;20071;-61
2023/01/19 10:44:06;;;;;;;17.40;4.60;;;10.90;99.90;;;;;;5045911;28;20059;-60
2023/01/19 10:46:46;;;;;;;14.82;3.85;;;11.60;99.90;;;;;;5049454;28;20044;-61
2023/01/19 10:49:36;;;;;;;14.05;2.60;;;11.60;99.90;;;;;;5048766;28;20100;-60
2023/01/19 10:52:16;;;;;;;10.70;2.20;;;11.10;99.90;;;;;;5050300;28;20432;-60
2023/01/19 10:54:43;;;;;;;11.05;2.08;;;10.60;99.90;;;;;;5045995;28;20060;-60
2023/01/19 10:57:11;;;;;;;15.05;2.40;;;9.70;99.90;;;;;;5049629;28;20227;-61
2023/01/19 10:59:43;;;;;;;13.23;2.28;;;9.20;99.90;;;;;;5041838;28;20053;-60
2023/01/19 11:02:19;;;;;;;7.85;1.88;;;9.10;99.90;;;;;;5045007;28;20057;-61
2023/01/19 11:04:48;;;;;;;10.95;1.98;;;9.20;99.90;;;;;;5047756;28;20141;-61
2023/01/19 11:07:21;;;;;;;15.35;2.58;;;9.00;99.90;;;;;;5049555;28;20036;-59
2023/01/19 11:09:47;;;;;;;10.88;2.80;;;8.60;99.90;;;;;;5045987;28;20033;-61
2023/01/19 11:12:23;;;;;;;10.63;2.25;;;8.20;99.90;;;;;;5047547;28;20041;-61
2023/01/19 11:14:51;;;;;;;9.90;2.15;;;8.00;99.90;;;;;;5049188;28;20877;-60
2023/01/19 11:17:24;;;;;;;13.18;2.00;;;8.20;99.90;;;;;;5047643;28;20045;-60
2023/01/19 11:19:59;;;;;;;9.98;1.77;;;8.90;99.90;;;;;;5046873;28;20074;-60
2023/01/19 11:22:31;;;;;;;7.18;2.10;;;9.30;99.90;;;;;;5049876;28;20052;-61
2023/01/19 11:25:03;;;;;;;8.93;2.10;;;9.10;99.90;;;;;;5044557;28;20701;-59
2023/01/19 11:27:33;;;;;;;7.75;1.60;;;9.20;99.90;;;;;;5031864;28;20166;-60
2023/01/19 11:30:09;;;;;;;8.07;1.88;;;9.70;99.90;;;;;;5045441;28;20049;-60
2023/01/19 11:32:35;;;;;;;7.38;1.70;;;10.40;99.90;;;;;;5048279;28;20080;-61
2023/01/19 11:35:32;;;;;;;7.40;2.90;;;11.00;99.90;;;;;;5049213;28;20041;-60
2023/01/19 11:38:12;;;;;;;7.00;1.83;;;11.30;99.90;;;;;;5044772;28;20061;-59
2023/01/19 11:40:39;;;;;;;6.85;1.58;;;11.70;99.90;;;;;;5046506;28;20116;-59
2023/01/19 11:43:08;;;;;;;7.55;1.52;;;11.60;99.90;;;;;;5045319;28;20037;-59
2023/01/19 11:45:34;;;;;;;10.05;1.80;;;10.90;99.90;;;;;;5047322;28;20038;-61
2023/01/19 11:48:04;;;;;;;9.07;1.65;;;10.20;99.90;;;;;;5046373;28;20041;-61
2023/01/19 11:50:43;;;;;;;9.68;1.70;;;9.70;99.90;;;;;;5045873;28;20037;-61
2023/01/19 11:53:23;;;;;;;7.97;2.42;;;9.80;99.90;;;;;;5048631;28;20087;-61
2023/01/19 11:56:03;;;;;;;11.27;2.40;;;10.20;99.90;;;;;;5047117;28;20048;-60
2023/01/19 11:58:32;;;;;;;12.43;2.42;;;10.60;99.90;;;;;;5045803;28;20049;-62
2023/01/19 12:01:00;;;;;;;11.30;2.58;;;10.80;99.90;;;;;;5048772;28;20511;-62
2023/01/19 12:03:40;;;;;;;13.32;3.45;;;10.90;99.90;;;;;;5047028;28;20037;-62
2023/01/19 12:06:17;;;;;;;8.77;2.10;;;10.80;99.90;;;;;;5043438;28;20102;-61
2023/01/19 12:08:49;;;;;;;9.88;2.63;;;10.30;99.90;;;;;;5047837;28;20037;-62
2023/01/19 12:11:20;;;;;;;9.02;2.20;;;10.20;99.90;;;;;;5045907;28;20108;-61
2023/01/19 12:13:46;;;;;;;9.05;2.30;;;9.90;99.90;;;;;;5045801;28;20052;-60
2023/01/19 12:16:22;;;;;;;8.48;2.00;;;9.60;99.90;;;;;;5043941;28;20668;-62
2023/01/19 12:18:54;;;;;;;8.77;1.70;;;9.40;99.90;;;;;;5049487;28;20053;-62
2023/01/19 12:21:20;;;;;;;6.90;1.45;;;9.30;99.90;;;;;;5046788;28;20056;-61
2023/01/19 12:23:52;;;;;;;10.52;2.08;;;9.30;99.90;;;;;;5049554;28;20099;-61
2023/01/19 12:26:28;;;;;;;8.13;1.45;;;9.00;99.90;;;;;;5048074;28;20468;-62
2023/01/19 12:28:59;;;;;;;7.65;1.58;;;8.80;99.90;;;;;;5047526;28;20234;-61
2023/01/19 12:31:24;;;;;;;5.50;1.17;;;8.70;99.90;;;;;;5045164;28;20045;-61
2023/01/19 12:33:51;;;;;;;6.63;1.52;;;8.60;99.90;;;;;;5045481;28;20220;-61
2023/01/19 12:36:25;;;;;;;6.30;1.40;;;8.50;99.90;;;;;;5042709;28;20356;-62
2023/01/19 12:38:59;;;;;;;7.15;1.60;;;7.60;99.90;;;;;;5046477;28;20066;-61
2023/01/19 12:41:37;;;;;;;7.88;1.27;;;7.90;99.90;;;;;;5045106;28;20077;-61
2023/01/19 12:44:15;;;;;;;4.97;1.40;;;7.70;99.90;;;;;;5049013;28;20041;-62
2023/01/19 12:46:48;;;;;;;4.40;1.75;;;7.50;99.90;;;;;;5047361;28;20527;-61
2023/01/19 12:49:34;;;;;;;7.57;1.65;;;7.50;99.90;;;;;;5047800;28;20053;-61
2023/01/19 12:52:10;;;;;;;6.00;1.52;;;7.40;99.90;;;;;;5052958;28;20057;-60
2023/01/19 12:54:36;;;;;;;17.17;2.15;;;7.60;99.90;;;;;;5052738;28;20059;-61
2023/01/19 12:57:14;;;;;;;8.25;1.75;;;7.70;99.90;;;;;;5050517;28;20452;-62
2023/01/19 12:59:40;;;;;;;6.63;1.40;;;7.70;99.90;;;;;;5047563;28;22227;-63
2023/01/19 13:02:24;;;;;;;7.13;1.48;;;7.80;99.90;;;;;;5035360;28;20046;-61
2023/01/19 13:05:12;;;;;;;6.82;1.38;;;8.10;99.90;;;;;;5031840;28;20516;-61
2023/01/19 13:08:00;;;;;;;6.35;1.33;;;8.40;99.90;;;;;;5046572;28;20041;-60
2023/01/19 13:10:53;;;;;;;7.95;1.45;;;8.40;99.90;;;;;;5043225;28;20045;-59
2023/01/19 13:13:31;;;;;;;8.30;1.65;;;8.40;99.90;;;;;;5045081;28;20052;-60
2023/01/19 13:16:15;;;;;;;9.98;1.48;;;8.50;99.90;;;;;;5046165;28;20045;-60